createdAt,value
2019-04-27T00:00:04.241Z,65.5
2019-04-27T00:15:05.016Z,65.6
2019-04-27T00:30:04.528Z,65.5
2019-04-27T00:45:05.656Z,66.3
2019-04-27T01:00:05.338Z,65.8
2019-04-27T01:15:04.705Z,66.3
2019-04-27T01:30:04.198Z,66.5
2019-04-27T01:45:04.975Z,66.9
2019-04-27T02:00:04.750Z,66.7
2019-04-27T02:15:04.246Z,66.8
2019-04-27T02:30:04.796Z,66.8
2019-04-27T02:45:04.543Z,67.1
2019-04-27T03:00:04.815Z,66.8
2019-04-27T03:15:05.076Z,66
2019-04-27T03:30:04.570Z,66.7
2019-04-27T03:45:04.898Z,66.5
2019-04-27T04:00:04.749Z,66.7
2019-04-27T04:15:04.670Z,67
2019-04-27T04:30:04.330Z,66.5
2019-04-27T05:00:04.316Z,67.2
2019-04-27T05:15:04.672Z,67.1
2019-04-27T05:30:05.106Z,67.6
2019-04-27T05:45:04.441Z,67.5
2019-04-27T06:00:04.761Z,67.7
2019-04-27T06:15:04.988Z,67.9
2019-04-27T06:30:05.083Z,67.3
2019-04-27T06:45:04.819Z,67.8
2019-04-27T07:00:04.162Z,67.9
2019-04-27T07:15:04.397Z,67.9
2019-04-27T07:30:05.312Z,67.9
2019-04-27T07:45:05.130Z,67.8
2019-04-27T08:00:04.431Z,67.7
2019-04-27T08:15:04.176Z,67.6
2019-04-27T08:30:04.657Z,67.3
2019-04-27T08:45:05.001Z,67.6
2019-04-27T09:00:04.255Z,68
2019-04-27T09:15:05.076Z,68.6
2019-04-27T09:45:06.729Z,69
2019-04-27T10:00:11.480Z,70
2019-04-27T10:15:06.300Z,70.7
2019-04-27T10:30:05.902Z,69.5
2019-04-27T10:45:04.212Z,68.4
2019-04-27T11:00:06.821Z,68.8
2019-04-27T11:15:07.717Z,68.7
2019-04-27T11:30:04.428Z,67.4
2019-04-27T11:45:06.672Z,67.2
2019-04-27T12:00:04.529Z,66.8
2019-04-27T12:15:05.899Z,66.7
2019-04-27T12:30:06.363Z,66.5
2019-04-27T12:45:04.133Z,65.6
2019-04-27T13:00:04.295Z,64.7
2019-04-27T13:15:04.918Z,66
2019-04-27T13:30:07.504Z,65.4
2019-04-27T13:45:06.104Z,64.9
2019-04-27T14:00:04.412Z,64.9
2019-04-27T14:15:04.656Z,64.3
2019-04-27T14:30:04.150Z,64.1
2019-04-27T14:45:04.480Z,64.4
2019-04-27T15:00:04.310Z,64.5
2019-04-27T15:15:04.078Z,64.2
2019-04-27T15:30:11.425Z,64.7
2019-04-27T15:45:04.962Z,65.3
2019-04-27T16:00:04.246Z,65.1
2019-04-27T16:15:05.320Z,65.9
2019-04-27T16:30:16.359Z,65.5
2019-04-27T16:45:04.267Z,65
2019-04-27T17:00:04.577Z,64.8
2019-04-27T17:15:14.929Z,65
2019-04-27T17:30:04.345Z,64.8
2019-04-27T17:45:04.707Z,65.3
2019-04-27T18:00:04.522Z,65.4
2019-04-27T18:15:04.939Z,65.2
2019-04-27T18:30:04.688Z,63.6
2019-04-27T18:45:08.497Z,63.8
2019-04-27T19:00:04.728Z,63.4
2019-04-27T19:15:05.012Z,63.2
2019-04-27T19:30:04.514Z,63
2019-04-27T19:45:04.273Z,62.7
2019-04-27T20:00:05.073Z,61.7
2019-04-27T20:15:04.526Z,62.4
2019-04-27T20:30:04.538Z,62.4
2019-04-27T20:45:04.910Z,62.5
2019-04-27T21:00:04.255Z,62.5
2019-04-27T21:15:04.106Z,62.3
2019-04-27T21:30:04.118Z,62.7
2019-04-27T21:45:04.906Z,62.2
2019-04-27T22:00:04.160Z,62
2019-04-27T22:15:04.417Z,62.7
2019-04-27T22:30:04.442Z,61.1
2019-04-27T22:45:04.857Z,62.5
2019-04-27T23:00:06.703Z,62.1
2019-04-27T23:15:04.625Z,61.9
2019-04-27T23:30:04.678Z,61.6
2019-04-27T23:45:14.478Z,59.9
